createdAt,value
2019-05-22T00:01:39.308Z,165.32
2019-05-22T00:04:13.428Z,166.55
2019-05-22T00:06:43.058Z,164.80
2019-05-22T00:09:18.756Z,165.62
2019-05-22T00:11:48.264Z,165.60
2019-05-22T00:14:15.572Z,165.47
2019-05-22T00:16:46.265Z,163.75
2019-05-22T00:19:14.422Z,165.45
2019-05-22T00:21:41.713Z,166.45
2019-05-22T00:24:10.866Z,166.15
2019-05-22T00:26:39.843Z,166.55
2019-05-22T00:29:07.268Z,165.75
2019-05-22T00:31:34.542Z,166.25
2019-05-22T00:34:02.899Z,166.97
2019-05-22T00:36:31.914Z,165.50
2019-05-22T00:38:59.137Z,166.20
2019-05-22T00:41:28.123Z,166.20
2019-05-22T00:43:56.154Z,165.85
2019-05-22T00:46:24.507Z,168.15
2019-05-22T00:48:53.728Z,167.60
2019-05-22T00:51:36.908Z,167.85
2019-05-22T00:54:14.133Z,168.07
2019-05-22T00:56:50.906Z,167.45
2019-05-22T00:59:24.360Z,165.75
2019-05-22T01:01:52.786Z,166.28
2019-05-22T01:04:24.959Z,167.80
2019-05-22T01:06:53.983Z,167.45
2019-05-22T01:09:31.041Z,165.50
2019-05-22T01:11:59.898Z,165.05
2019-05-22T01:14:42.058Z,166.03
2019-05-22T01:16:56.421Z,167.05
2019-05-22T01:19:24.159Z,164.85
2019-05-22T01:21:51.712Z,167.13
2019-05-22T01:24:18.872Z,163.77
2019-05-22T01:26:49.371Z,167.28
2019-05-22T01:29:18.104Z,166.35
2019-05-22T01:31:50.073Z,168.07
2019-05-22T01:34:23.442Z,166.53
2019-05-22T01:36:54.759Z,167.30
2019-05-22T01:39:45.559Z,166.80
2019-05-22T01:42:19.426Z,166.57
2019-05-22T01:45:01.822Z,166.45
2019-05-22T01:47:33.045Z,166.57
2019-05-22T01:50:00.606Z,166.07
2019-05-22T01:52:27.838Z,165.68
2019-05-22T01:54:56.816Z,166.10
2019-05-22T01:57:25.802Z,167.15
2019-05-22T01:59:53.419Z,166.12
2019-05-22T02:02:23.451Z,165.75
2019-05-22T02:04:52.551Z,167.70
2019-05-22T02:07:21.003Z,167.30
2019-05-22T02:09:51.369Z,165.20
2019-05-22T02:12:31.241Z,167.93
2019-05-22T02:14:59.435Z,167.40
2019-05-22T02:17:30.982Z,168.47
2019-05-22T02:19:59.146Z,167.72
2019-05-22T02:22:26.433Z,168.13
2019-05-22T02:24:54.174Z,169.43
2019-05-22T02:27:23.409Z,167.70
2019-05-22T02:29:54.239Z,166.95
2019-05-22T02:32:23.172Z,166.88
2019-05-22T02:34:51.204Z,167.98
2019-05-22T02:37:19.330Z,167.32
2019-05-22T02:39:46.938Z,166.55
2019-05-22T02:42:20.056Z,166.88
2019-05-22T02:44:48.174Z,167.15
2019-05-22T02:47:20.742Z,164.97
2019-05-22T02:49:48.092Z,164.47
2019-05-22T02:52:15.891Z,165.28
2019-05-22T02:54:43.526Z,164.40
2019-05-22T02:57:12.328Z,165.70
2019-05-22T02:59:39.661Z,163.15
2019-05-22T03:02:06.907Z,164.00
2019-05-22T03:05:10.211Z,164.52
2019-05-22T03:07:39.604Z,163.45
2019-05-22T03:10:15.299Z,163.10
2019-05-22T03:12:44.522Z,164.90
2019-05-22T03:15:15.436Z,164.20
2019-05-22T03:17:44.281Z,166.32
2019-05-22T03:20:15.573Z,167.30
2019-05-22T03:22:58.174Z,164.32
2019-05-22T03:25:26.469Z,166.18
2019-05-22T03:27:53.887Z,166.47
2019-05-22T03:30:26.108Z,166.20
2019-05-22T03:32:55.680Z,169.32
2019-05-22T03:35:25.555Z,168.62
2019-05-22T03:37:53.710Z,167.77
2019-05-22T03:40:22.516Z,166.97
2019-05-22T03:42:53.192Z,169.22
2019-05-22T03:45:22.912Z,169.70
2019-05-22T03:47:51.116Z,168.70
2019-05-22T03:50:19.320Z,168.52
2019-05-22T03:52:46.506Z,169.47
2019-05-22T03:55:15.618Z,171.10
2019-05-22T03:57:43.959Z,169.17
2019-05-22T04:00:15.073Z,168.78
2019-05-22T04:02:43.581Z,168.72
2019-05-22T04:05:12.366Z,169.30
2019-05-22T04:07:40.387Z,168.57
2019-05-22T04:10:09.827Z,164.75
2019-05-22T04:12:37.211Z,164.97
2019-05-22T04:15:07.039Z,164.90
2019-05-22T04:17:35.644Z,165.55
2019-05-22T04:20:04.043Z,165.47
2019-05-22T04:22:31.411Z,162.60
2019-05-22T04:24:59.049Z,163.03
2019-05-22T04:27:26.051Z,164.13
2019-05-22T04:29:53.266Z,162.72
2019-05-22T04:32:28.856Z,163.90
2019-05-22T04:34:56.464Z,165.00
2019-05-22T04:37:24.280Z,164.60
2019-05-22T04:39:55.822Z,164.77
2019-05-22T04:42:24.131Z,164.37
2019-05-22T04:45:17.950Z,164.47
2019-05-22T04:47:56.895Z,162.75
2019-05-22T04:50:24.578Z,164.00
2019-05-22T04:52:52.525Z,165.47
2019-05-22T04:55:20.246Z,164.67
2019-05-22T04:57:48.879Z,165.55
2019-05-22T05:00:17.927Z,166.05
2019-05-22T05:02:45.065Z,167.20
2019-05-22T05:05:12.823Z,167.75
2019-05-22T05:07:40.926Z,165.97
2019-05-22T05:10:08.510Z,163.45
2019-05-22T05:12:35.776Z,167.13
2019-05-22T05:15:04.546Z,167.30
2019-05-22T05:17:31.703Z,165.10
2019-05-22T05:19:58.817Z,166.82
2019-05-22T05:22:40.559Z,167.40
2019-05-22T05:25:09.076Z,169.60
2019-05-22T05:27:36.095Z,166.70
2019-05-22T05:30:03.307Z,166.88
2019-05-22T05:32:31.116Z,165.97
2019-05-22T05:35:04.782Z,167.25
2019-05-22T05:37:31.970Z,166.25
2019-05-22T05:40:27.133Z,169.07
2019-05-22T05:42:54.220Z,167.75
2019-05-22T05:45:21.767Z,166.77
2019-05-22T05:47:49.594Z,166.10
2019-05-22T05:50:19.540Z,166.68
2019-05-22T05:52:48.639Z,167.47
2019-05-22T05:55:16.974Z,164.72
2019-05-22T05:58:22.868Z,166.05
2019-05-22T06:00:54.191Z,165.92
2019-05-22T06:03:33.300Z,167.55
2019-05-22T06:06:04.947Z,165.90
2019-05-22T06:08:33.042Z,166.05
2019-05-22T06:11:44.629Z,163.95
2019-05-22T06:14:23.371Z,163.77
2019-05-22T06:17:37.759Z,166.20
2019-05-22T06:20:11.690Z,165.07
2019-05-22T06:22:41.611Z,165.95
2019-05-22T06:25:09.811Z,162.88
2019-05-22T06:27:52.258Z,165.92
2019-05-22T06:30:40.633Z,167.95
2019-05-22T06:33:43.486Z,164.22
2019-05-22T06:36:18.578Z,164.03
2019-05-22T06:38:52.636Z,162.12
2019-05-22T06:41:23.780Z,162.45
2019-05-22T06:44:35.272Z,161.30
2019-05-22T06:47:04.452Z,159.10
2019-05-22T06:49:52.650Z,161.30
2019-05-22T06:52:20.242Z,159.75
2019-05-22T06:54:48.682Z,159.85
2019-05-22T06:57:19.649Z,160.70
2019-05-22T06:59:49.246Z,158.75
2019-05-22T07:02:18.711Z,160.75
2019-05-22T07:04:48.324Z,162.80
2019-05-22T07:07:16.645Z,159.82
2019-05-22T07:09:44.902Z,161.77
2019-05-22T07:12:14.891Z,165.57
2019-05-22T07:15:13.129Z,167.28
2019-05-22T07:17:41.253Z,164.85
2019-05-22T07:20:12.455Z,170.22
2019-05-22T07:22:39.413Z,167.30
2019-05-22T07:25:08.835Z,164.47
2019-05-22T07:27:39.195Z,168.35
2019-05-22T07:30:08.151Z,160.35
2019-05-22T07:32:42.478Z,165.22
2019-05-22T07:35:14.732Z,157.25
2019-05-22T07:37:45.928Z,159.52
2019-05-22T07:40:15.078Z,157.35
2019-05-22T07:42:42.521Z,157.25
2019-05-22T07:45:10.174Z,157.50
2019-05-22T07:47:37.412Z,156.15
2019-05-22T07:50:05.134Z,161.10
2019-05-22T07:52:32.413Z,159.82
2019-05-22T07:55:01.290Z,159.05
2019-05-22T07:57:29.448Z,158.85
2019-05-22T07:59:56.615Z,159.15
2019-05-22T08:02:26.140Z,158.10
2019-05-22T08:04:53.445Z,159.82
2019-05-22T08:07:26.174Z,158.85
2019-05-22T08:09:53.656Z,157.78
2019-05-22T08:12:21.001Z,157.22
2019-05-22T08:14:48.504Z,157.82
2019-05-22T08:17:16.845Z,158.15
2019-05-22T08:19:44.417Z,157.72
2019-05-22T08:22:12.577Z,157.47
2019-05-22T08:24:40.665Z,157.43
2019-05-22T08:27:07.957Z,156.90
2019-05-22T08:29:35.527Z,156.22
2019-05-22T08:32:03.524Z,156.25
2019-05-22T08:34:31.037Z,157.67
2019-05-22T08:37:01.024Z,156.43
2019-05-22T08:39:28.717Z,154.42
2019-05-22T08:41:55.958Z,154.65
2019-05-22T08:44:23.867Z,155.00
2019-05-22T08:46:52.150Z,154.82
2019-05-22T08:49:19.514Z,155.22
2019-05-22T08:51:48.091Z,153.90
2019-05-22T08:54:15.654Z,153.85
2019-05-22T08:56:46.990Z,152.85
2019-05-22T08:59:19.567Z,154.42
2019-05-22T09:01:43.587Z,155.50
2019-05-22T09:04:11.104Z,155.32
2019-05-22T09:06:38.092Z,153.82
2019-05-22T09:09:06.268Z,153.87
2019-05-22T09:11:33.366Z,153.23
2019-05-22T09:14:00.633Z,153.72
2019-05-22T09:16:27.603Z,154.55
2019-05-22T09:18:57.802Z,152.10
2019-05-22T09:21:24.803Z,152.80
2019-05-22T09:23:53.352Z,152.70
2019-05-22T09:26:22.617Z,154.27
2019-05-22T09:28:49.600Z,153.72
2019-05-22T09:31:17.751Z,154.18
2019-05-22T09:33:45.970Z,154.38
2019-05-22T09:36:14.378Z,154.18
2019-05-22T09:38:41.452Z,154.12
2019-05-22T09:41:08.705Z,154.53
2019-05-22T09:43:35.851Z,155.25
2019-05-22T09:46:04.644Z,155.72
2019-05-22T09:48:33.583Z,156.82
2019-05-22T09:51:00.683Z,154.85
2019-05-22T09:53:27.845Z,155.18
2019-05-22T09:55:55.232Z,155.85
2019-05-22T09:58:22.925Z,156.07
2019-05-22T10:00:49.978Z,156.85
2019-05-22T10:03:17.058Z,157.32
2019-05-22T10:05:47.747Z,157.35
2019-05-22T10:08:15.653Z,157.90
2019-05-22T10:10:43.015Z,157.78
2019-05-22T10:13:10.117Z,158.12
2019-05-22T10:15:38.558Z,159.43
2019-05-22T10:18:06.036Z,161.07
2019-05-22T10:20:56.574Z,161.43
2019-05-22T10:23:23.634Z,160.85
2019-05-22T10:25:51.275Z,160.25
2019-05-22T10:28:18.665Z,162.60
2019-05-22T10:30:46.849Z,161.77
2019-05-22T10:33:16.262Z,162.10
2019-05-22T10:35:43.607Z,163.47
2019-05-22T10:38:11.082Z,160.60
2019-05-22T10:40:38.319Z,161.57
2019-05-22T10:43:05.731Z,160.55
2019-05-22T10:45:33.124Z,163.18
2019-05-22T10:48:01.182Z,162.92
2019-05-22T10:50:31.101Z,159.78
2019-05-22T10:53:01.018Z,160.93
2019-05-22T10:55:29.047Z,162.18
2019-05-22T10:57:58.811Z,164.15
2019-05-22T11:00:29.417Z,160.12
2019-05-22T11:02:57.590Z,163.07
2019-05-22T11:05:26.055Z,162.70
2019-05-22T11:07:53.111Z,166.00
2019-05-22T11:10:23.646Z,163.35
2019-05-22T11:12:51.145Z,165.03
2019-05-22T11:15:18.828Z,164.13
2019-05-22T11:17:46.596Z,164.30
2019-05-22T11:20:32.763Z,165.07
2019-05-22T11:23:11.438Z,165.90
2019-05-22T11:25:48.688Z,165.88
2019-05-22T11:28:19.232Z,166.65
2019-05-22T11:30:46.205Z,168.93
2019-05-22T11:33:13.970Z,169.65
2019-05-22T11:35:40.959Z,164.93
2019-05-22T11:38:10.462Z,167.77
2019-05-22T11:40:53.645Z,167.15
2019-05-22T11:43:26.091Z,164.75
2019-05-22T11:45:53.085Z,164.18
2019-05-22T11:48:27.738Z,163.35
2019-05-22T11:50:55.957Z,166.22
2019-05-22T11:53:23.521Z,165.85
2019-05-22T11:55:52.693Z,170.15
2019-05-22T11:58:19.791Z,163.90
2019-05-22T12:00:56.206Z,164.28
2019-05-22T12:03:23.979Z,165.57
2019-05-22T12:05:55.759Z,164.52
2019-05-22T12:08:27.328Z,163.90
2019-05-22T12:10:56.701Z,165.68
2019-05-22T12:13:25.200Z,166.25
2019-05-22T12:15:58.863Z,164.37
2019-05-22T12:18:32.253Z,162.92
2019-05-22T12:21:01.609Z,165.65
2019-05-22T12:23:29.614Z,169.00
2019-05-22T12:25:56.706Z,165.28
2019-05-22T12:28:26.495Z,169.02
2019-05-22T12:30:54.589Z,166.95
2019-05-22T12:33:22.192Z,166.12
2019-05-22T12:35:49.897Z,169.93
2019-05-22T12:38:17.267Z,169.50
2019-05-22T12:40:44.347Z,172.13
2019-05-22T12:43:11.414Z,171.93
2019-05-22T12:46:05.640Z,171.77
2019-05-22T12:48:36.822Z,170.40
2019-05-22T12:51:11.935Z,168.10
2019-05-22T12:53:41.077Z,166.92
2019-05-22T12:56:10.454Z,169.28
2019-05-22T12:58:40.412Z,167.50
2019-05-22T13:01:17.987Z,168.60
2019-05-22T13:03:48.723Z,165.90
2019-05-22T13:06:18.230Z,167.10
2019-05-22T13:08:45.624Z,169.13
2019-05-22T13:11:20.161Z,172.30
2019-05-22T13:13:49.463Z,168.52
2019-05-22T13:16:16.994Z,167.28
2019-05-22T13:18:53.642Z,167.30
2019-05-22T13:21:29.448Z,168.52
2019-05-22T13:23:59.638Z,173.28
2019-05-22T13:26:29.263Z,173.47
2019-05-22T13:28:57.011Z,168.97
2019-05-22T13:31:29.372Z,170.92
2019-05-22T13:33:57.680Z,170.02
2019-05-22T13:36:31.616Z,171.95
2019-05-22T13:38:59.234Z,171.60
2019-05-22T13:41:26.700Z,170.50
2019-05-22T13:43:54.078Z,169.87
2019-05-22T13:46:21.744Z,171.95
2019-05-22T13:48:49.022Z,172.00
2019-05-22T13:51:16.282Z,168.85
2019-05-22T13:53:48.798Z,169.95
2019-05-22T13:56:17.361Z,168.55
2019-05-22T13:58:44.883Z,170.25
2019-05-22T14:01:11.946Z,175.78
2019-05-22T14:03:41.217Z,173.30
2019-05-22T14:06:08.558Z,174.00
2019-05-22T14:08:35.913Z,172.07
2019-05-22T14:11:03.994Z,172.25
2019-05-22T14:13:31.283Z,172.82
2019-05-22T14:16:01.398Z,173.07
2019-05-22T14:18:29.349Z,172.32
2019-05-22T14:20:56.524Z,177.90
2019-05-22T14:23:23.716Z,180.65
2019-05-22T14:25:51.611Z,174.65
2019-05-22T14:28:20.758Z,174.57
2019-05-22T14:30:48.531Z,180.05
2019-05-22T14:33:16.079Z,175.90
2019-05-22T14:35:48.973Z,177.25
2019-05-22T14:38:15.091Z,180.90
2019-05-22T14:40:42.811Z,181.07
2019-05-22T14:43:10.596Z,172.37
2019-05-22T14:45:38.287Z,172.60
2019-05-22T14:48:05.536Z,172.78
2019-05-22T14:50:33.357Z,168.85
2019-05-22T14:53:00.330Z,170.47
2019-05-22T14:55:29.025Z,169.68
2019-05-22T14:57:56.876Z,172.50
2019-05-22T15:00:27.251Z,171.15
2019-05-22T15:02:58.525Z,172.37
2019-05-22T15:05:24.265Z,172.70
2019-05-22T15:07:57.675Z,171.28
2019-05-22T15:10:26.165Z,172.20
2019-05-22T15:13:08.334Z,172.78
2019-05-22T15:15:40.517Z,173.32
2019-05-22T15:18:07.175Z,175.45
2019-05-22T15:21:01.581Z,172.55
2019-05-22T15:23:30.421Z,171.57
2019-05-22T15:26:01.589Z,171.95
2019-05-22T15:28:29.370Z,171.93
2019-05-22T15:30:56.538Z,169.85
2019-05-22T15:33:29.858Z,173.38
2019-05-22T15:35:57.109Z,174.15
2019-05-22T15:38:26.181Z,171.57
2019-05-22T15:40:55.058Z,169.77
2019-05-22T15:43:24.079Z,170.87
2019-05-22T15:45:54.761Z,168.78
2019-05-22T15:48:29.237Z,167.72
2019-05-22T15:50:59.406Z,168.35
2019-05-22T15:53:34.170Z,167.72
2019-05-22T15:56:03.841Z,169.72
2019-05-22T15:58:33.318Z,168.87
2019-05-22T16:01:01.341Z,170.35
2019-05-22T16:03:29.475Z,166.00
2019-05-22T16:05:58.316Z,165.05
2019-05-22T16:08:31.216Z,166.60
2019-05-22T16:11:19.374Z,166.07
2019-05-22T16:13:47.901Z,168.80
2019-05-22T16:16:18.186Z,165.18
2019-05-22T16:18:45.803Z,167.80
2019-05-22T16:21:13.855Z,165.95
2019-05-22T16:23:44.544Z,166.77
2019-05-22T16:26:13.314Z,166.35
2019-05-22T16:28:43.844Z,163.82
2019-05-22T16:31:16.406Z,164.60
2019-05-22T16:33:52.787Z,167.68
2019-05-22T16:36:21.199Z,165.55
2019-05-22T16:38:50.275Z,167.13
2019-05-22T16:41:18.645Z,164.60
2019-05-22T16:43:49.619Z,167.20
2019-05-22T16:46:18.347Z,173.55
2019-05-22T16:48:47.407Z,166.37
2019-05-22T16:51:19.714Z,166.00
2019-05-22T16:53:56.176Z,164.60
2019-05-22T16:56:24.823Z,167.75
2019-05-22T16:58:52.891Z,167.00
2019-05-22T17:01:21.436Z,167.43
2019-05-22T17:03:53.197Z,165.28
2019-05-22T17:06:22.899Z,163.60
2019-05-22T17:08:50.429Z,166.40
2019-05-22T17:11:18.197Z,165.22
2019-05-22T17:13:46.618Z,165.60
2019-05-22T17:16:15.991Z,167.68
2019-05-22T17:18:48.116Z,166.28
2019-05-22T17:21:16.286Z,164.18
2019-05-22T17:23:44.172Z,163.95
2019-05-22T17:26:12.379Z,164.05
2019-05-22T17:28:40.279Z,164.47
2019-05-22T17:31:08.047Z,164.05
2019-05-22T17:33:35.307Z,168.00
2019-05-22T17:36:05.541Z,166.35
2019-05-22T17:38:32.787Z,165.47
2019-05-22T17:41:00.685Z,165.37
2019-05-22T17:43:30.676Z,166.40
2019-05-22T17:45:57.895Z,165.68
2019-05-22T17:48:28.373Z,165.73
2019-05-22T17:50:56.040Z,166.73
2019-05-22T17:53:24.290Z,167.90
2019-05-22T17:55:54.488Z,167.53
2019-05-22T17:58:30.105Z,166.15
2019-05-22T18:00:58.227Z,169.32
2019-05-22T18:03:25.347Z,167.87
2019-05-22T18:05:55.762Z,166.00
2019-05-22T18:08:33.925Z,167.20
2019-05-22T18:11:05.893Z,164.97
2019-05-22T18:13:38.147Z,168.70
2019-05-22T18:16:05.602Z,163.85
2019-05-22T18:18:34.955Z,168.07
2019-05-22T18:21:09.974Z,164.40
2019-05-22T18:23:39.364Z,165.97
2019-05-22T18:26:06.965Z,165.12
2019-05-22T18:28:34.403Z,163.05
2019-05-22T18:31:06.989Z,165.05
2019-05-22T18:33:40.090Z,168.60
2019-05-22T18:36:28.659Z,165.52
2019-05-22T18:39:05.283Z,166.70
2019-05-22T18:41:32.846Z,165.60
2019-05-22T18:44:00.561Z,165.97
2019-05-22T18:46:28.297Z,164.72
2019-05-22T18:48:56.076Z,165.90
2019-05-22T18:51:24.121Z,165.50
2019-05-22T18:53:53.467Z,164.67
2019-05-22T18:56:26.083Z,164.95
2019-05-22T18:58:55.610Z,163.92
2019-05-22T19:01:22.828Z,163.37
2019-05-22T19:03:50.183Z,163.52
2019-05-22T19:06:29.680Z,164.67
2019-05-22T19:08:49.805Z,161.77
2019-05-22T19:11:17.252Z,165.88
2019-05-22T19:13:54.884Z,164.55
2019-05-22T19:16:31.984Z,165.57
2019-05-22T19:19:01.851Z,167.07
2019-05-22T19:21:30.469Z,163.45
2019-05-22T19:24:02.939Z,164.97
2019-05-22T19:26:30.164Z,165.37
2019-05-22T19:28:57.692Z,165.12
2019-05-22T19:31:28.064Z,164.37
2019-05-22T19:33:55.385Z,164.20
2019-05-22T19:36:29.766Z,162.97
2019-05-22T19:38:57.209Z,166.47
2019-05-22T19:41:30.364Z,162.37
2019-05-22T19:44:06.726Z,163.87
2019-05-22T19:46:42.450Z,164.80
2019-05-22T19:49:12.867Z,165.28
2019-05-22T19:51:44.545Z,161.60
2019-05-22T19:54:12.126Z,164.45
2019-05-22T19:56:49.349Z,162.37
2019-05-22T19:59:17.357Z,163.52
2019-05-22T20:01:55.743Z,165.07
2019-05-22T20:04:23.686Z,163.12
2019-05-22T20:06:50.986Z,163.47
2019-05-22T20:09:20.737Z,162.18
2019-05-22T20:11:48.501Z,163.80
2019-05-22T20:14:18.737Z,165.35
2019-05-22T20:16:46.228Z,165.97
2019-05-22T20:19:20.370Z,162.30
2019-05-22T20:21:50.794Z,164.37
2019-05-22T20:24:19.769Z,164.35
2019-05-22T20:26:49.310Z,164.43
2019-05-22T20:29:18.542Z,163.68
2019-05-22T20:31:48.534Z,161.97
2019-05-22T20:34:27.007Z,163.50
2019-05-22T20:36:55.902Z,162.90
2019-05-22T20:39:25.037Z,162.12
2019-05-22T20:41:59.036Z,162.00
2019-05-22T20:44:38.063Z,163.30
2019-05-22T20:47:10.841Z,161.07
2019-05-22T20:49:43.507Z,159.67
2019-05-22T20:52:13.809Z,160.65
2019-05-22T20:54:47.985Z,161.82
2019-05-22T20:57:20.254Z,162.80
2019-05-22T20:59:50.660Z,162.97
2019-05-22T21:02:23.390Z,159.72
2019-05-22T21:04:56.056Z,159.78
2019-05-22T21:07:33.350Z,162.70
2019-05-22T21:10:10.143Z,159.82
2019-05-22T21:12:48.423Z,162.15
2019-05-22T21:15:15.811Z,158.50
2019-05-22T21:17:43.184Z,160.37
2019-05-22T21:20:15.173Z,159.30
2019-05-22T21:22:44.032Z,158.70
2019-05-22T21:25:11.358Z,159.35
2019-05-22T21:27:38.759Z,159.20
2019-05-22T21:30:09.507Z,157.12
2019-05-22T21:32:37.786Z,158.52
2019-05-22T21:35:13.696Z,160.72
2019-05-22T21:37:41.116Z,159.90
2019-05-22T21:40:09.024Z,160.20
2019-05-22T21:42:38.756Z,157.43
2019-05-22T21:45:08.823Z,158.93
2019-05-22T21:47:45.689Z,159.87
2019-05-22T21:50:14.051Z,161.28
2019-05-22T21:52:45.981Z,159.95
2019-05-22T21:55:15.333Z,161.47
2019-05-22T21:57:46.201Z,159.03
2019-05-22T22:00:21.535Z,158.85
2019-05-22T22:02:51.836Z,160.25
2019-05-22T22:05:19.263Z,157.20
2019-05-22T22:07:46.764Z,159.63
2019-05-22T22:10:15.304Z,158.80
2019-05-22T22:12:43.246Z,161.22
2019-05-22T22:15:12.604Z,157.35
2019-05-22T22:17:41.483Z,158.78
2019-05-22T22:20:09.671Z,158.22
2019-05-22T22:22:37.688Z,158.97
2019-05-22T22:25:09.593Z,158.50
2019-05-22T22:27:37.918Z,159.32
2019-05-22T22:30:10.619Z,159.00
2019-05-22T22:32:39.040Z,158.57
2019-05-22T22:35:11.182Z,157.88
2019-05-22T22:37:38.747Z,157.97
2019-05-22T22:40:08.064Z,157.22
2019-05-22T22:42:37.353Z,157.57
2019-05-22T22:45:10.707Z,158.20
2019-05-22T22:47:41.983Z,157.57
2019-05-22T22:50:12.366Z,157.90
2019-05-22T22:52:42.351Z,157.32
2019-05-22T22:55:12.502Z,156.97
2019-05-22T22:57:40.272Z,158.15
2019-05-22T23:00:11.415Z,158.37
2019-05-22T23:02:40.935Z,157.20
2019-05-22T23:05:10.607Z,159.93
2019-05-22T23:07:41.001Z,158.95
2019-05-22T23:10:10.400Z,156.40
2019-05-22T23:12:38.953Z,155.87
2019-05-22T23:15:10.125Z,157.35
2019-05-22T23:17:40.093Z,158.55
2019-05-22T23:20:13.103Z,157.55
2019-05-22T23:22:39.749Z,158.35
2019-05-22T23:25:09.438Z,159.00
2019-05-22T23:27:39.095Z,158.27
2019-05-22T23:30:14.110Z,159.95
2019-05-22T23:32:46.289Z,158.22
2019-05-22T23:35:28.616Z,157.93
2019-05-22T23:38:21.192Z,159.63
2019-05-22T23:40:59.452Z,155.20
2019-05-22T23:43:33.022Z,158.27
2019-05-22T23:46:02.067Z,158.65
2019-05-22T23:48:30.240Z,157.27
2019-05-22T23:50:58.697Z,161.52
2019-05-22T23:53:27.536Z,158.50
2019-05-22T23:55:58.135Z,157.97
2019-05-22T23:58:27.706Z,156.25
